Strona główna
METAR-TAF:

METAR-TAF

Lotnisko :

Port lotniczy Subic Bay

Subic Bay, Filipiny

Szerokość geograficzna: 14-48N, Długość geograficzna: 120-16E, wysokość: 18 m

Aktualna obserwacja pogody

Raport powstał 14 minut temu, godzina 22:00 UTC
Wiatr 4 kt od wschodnio-północny wschód
Temperatura 23°C
Wilgotność 89%
Ciśnienie 1013 hPa
Widzialność 10 km lub więcej
Mało chmury na wysokości 2000 ft

METAR: RPLB 102200Z 06004KT 9999 FEW020 23/21 Q1013 NOSIG RMK A2991

czas: 06:14 (22:14 UTC)

Prognoza

Raport powstał 5 godziny i 14 minut temu, godzina 17:00 UTC
Prognoza ważna od 10 godzina 18 UTC do 11 godzina 18 UTC
Wiatr 5 kt od wschodnio-północny wschód
Widzialność 10 km lub więcej
Mało chmury na wysokości 2000 ft
Przejściowo
od 10 godzina 18 UTC do 10 godzina 24 UTC
Wiatr 8 kt od wschodnio-północny wschód
Rozproszone chmury na wysokości 2000 ft
Rozproszone chmury na wysokości 8000 ft

TAF: RPLB 101700Z 1018/1118 06005KT 9999 FEW020 TX32/1106Z TN23/1022Z TEMPO 1018/1024 07008KT SCT020 SCT080

Obserwacja i prognoza pogody dla ponad 4000 lotnisk (raport METAR i TAF).

Dostępne stacje oznaczono żółtymi i czerwonymi punktami na mapie.

Najedź kursorem aby zobaczyć nazwę stacji.

Kliknij aby zobaczyć obserwacje i prognozy pogody.

Aby zmienić mapę: kliknij na zielony przycisk z czarnym krzyżykiem, aby powiększyć; na zielony przycisk z myślnikiem, aby pomniejszyć; na zielone strzałki, aby przejść do map sąsiednich.


METAR-TAF: